Time;durP1;ratioP1;P1;durP2;ratioP2;P2;SDS_P1;SDS_P2;PMS_P1;PMS_P2;Temp;Humidity;BMP_temperature;BMP_pressure;BME280_temperature;BME280_humidity;BME280_pressure;Samples;Min_cycle;Max_cycle;Signal;HPM_P1;HPM_P2
2022/03/26 00:00:09;;;;;;;19.90;10.80;;;11.60;59.10;;;;;;5037452;28;20208;-69
2022/03/26 00:02:35;;;;;;;18.23;9.57;;;11.60;59.10;;;;;;5030730;28;20470;-69
2022/03/26 00:05:01;;;;;;;17.80;9.53;;;11.60;59.10;;;;;;5039089;28;20450;-70
2022/03/26 00:07:27;;;;;;;16.77;9.47;;;11.50;58.90;;;;;;5039608;28;20459;-67
2022/03/26 00:09:53;;;;;;;18.97;10.10;;;11.50;59.10;;;;;;5036184;28;20458;-70
2022/03/26 00:12:18;;;;;;;21.17;10.63;;;11.50;59.20;;;;;;5034538;28;20268;-69
2022/03/26 00:14:44;;;;;;;16.73;10.30;;;11.60;59.20;;;;;;5046441;28;20305;-68
2022/03/26 00:17:10;;;;;;;21.43;10.80;;;11.50;59.30;;;;;;5035926;28;20219;-71
2022/03/26 00:19:35;;;;;;;18.10;10.17;;;11.50;59.40;;;;;;5038844;28;20212;-71
2022/03/26 00:22:02;;;;;;;22.80;9.17;;;11.60;59.40;;;;;;5034301;28;20239;-69
2022/03/26 00:24:28;;;;;;;22.03;10.90;;;11.50;59.40;;;;;;5033599;28;20220;-67
2022/03/26 00:26:53;;;;;;;17.83;9.27;;;11.50;59.40;;;;;;5039547;28;20877;-70
2022/03/26 00:29:19;;;;;;;16.43;9.07;;;11.60;59.40;;;;;;5043389;28;20291;-70
2022/03/26 00:31:45;;;;;;;15.50;9.67;;;11.60;59.50;;;;;;5029911;28;20227;-67
2022/03/26 00:34:12;;;;;;;17.40;9.97;;;11.50;59.30;;;;;;5027477;28;20455;-70
2022/03/26 00:36:38;;;;;;;19.63;11.00;;;11.50;59.40;;;;;;5028823;28;20308;-69
2022/03/26 00:39:04;;;;;;;22.77;11.87;;;11.50;59.50;;;;;;5023882;28;20535;-69
2022/03/26 00:41:30;;;;;;;21.63;10.77;;;11.50;59.60;;;;;;5035599;28;20231;-67
2022/03/26 00:43:56;;;;;;;22.10;11.10;;;11.50;59.30;;;;;;5033084;28;20267;-70
2022/03/26 00:46:23;;;;;;;18.60;10.13;;;11.50;59.40;;;;;;5042459;28;20228;-69
2022/03/26 00:48:48;;;;;;;21.37;10.70;;;11.50;59.40;;;;;;5029104;28;20479;-67
2022/03/26 00:51:17;;;;;;;20.93;10.93;;;11.50;59.60;;;;;;5037741;28;20459;-68
2022/03/26 00:53:44;;;;;;;18.87;10.27;;;11.40;59.60;;;;;;5034694;28;20303;-70
2022/03/26 00:56:11;;;;;;;23.00;10.30;;;11.40;59.50;;;;;;5027841;28;20460;-69
2022/03/26 00:58:38;;;;;;;22.80;10.47;;;11.40;59.50;;;;;;5046496;28;20474;-70
2022/03/26 01:01:03;;;;;;;18.47;10.00;;;11.40;59.50;;;;;;5037226;28;20463;-69
2022/03/26 01:03:29;;;;;;;16.17;9.87;;;11.40;59.40;;;;;;5033157;28;20454;-72
2022/03/26 01:05:55;;;;;;;19.13;10.23;;;11.30;59.10;;;;;;5032638;28;20688;-71
2022/03/26 01:08:20;;;;;;;18.33;9.83;;;11.30;59.40;;;;;;5043292;28;20213;-70
2022/03/26 01:10:46;;;;;;;18.57;9.70;;;11.30;59.40;;;;;;5035014;28;20366;-69
2022/03/26 01:13:13;;;;;;;15.80;9.23;;;11.20;59.40;;;;;;5037967;28;20221;-69
2022/03/26 01:15:39;;;;;;;17.23;9.37;;;11.20;59.40;;;;;;5032792;28;20209;-68
2022/03/26 01:18:05;;;;;;;16.07;10.17;;;11.20;59.20;;;;;;5034319;28;20449;-70
2022/03/26 01:20:30;;;;;;;23.03;10.33;;;11.10;59.10;;;;;;5032689;28;20816;-69
2022/03/26 01:22:56;;;;;;;14.07;8.20;;;11.10;59.40;;;;;;5038943;28;20665;-70
2022/03/26 01:25:22;;;;;;;15.80;8.83;;;11.10;59.30;;;;;;5038086;28;20208;-70
2022/03/26 01:27:48;;;;;;;19.83;8.60;;;11.00;59.40;;;;;;5031126;28;20455;-69
2022/03/26 01:30:13;;;;;;;17.30;9.40;;;11.00;59.60;;;;;;5041015;28;20239;-69
2022/03/26 01:32:39;;;;;;;16.90;8.37;;;11.00;59.60;;;;;;5025558;28;20240;-68
2022/03/26 01:35:05;;;;;;;16.47;9.47;;;11.00;59.70;;;;;;5023365;28;20243;-70
2022/03/26 01:37:31;;;;;;;22.67;9.60;;;11.00;59.60;;;;;;5026604;28;20220;-71
2022/03/26 01:39:57;;;;;;;21.63;9.67;;;11.00;59.70;;;;;;5022989;28;20460;-68
2022/03/26 01:42:23;;;;;;;21.57;9.30;;;11.00;59.80;;;;;;5020533;28;20831;-70
2022/03/26 01:44:49;;;;;;;17.70;9.27;;;11.00;59.90;;;;;;5029621;28;20224;-70
2022/03/26 01:47:14;;;;;;;15.67;9.40;;;10.90;59.70;;;;;;5024978;28;20467;-71
2022/03/26 01:49:40;;;;;;;22.10;10.20;;;10.90;59.80;;;;;;5023574;28;20236;-71
2022/03/26 01:52:10;;;;;;;19.50;9.90;;;10.80;59.60;;;;;;5020522;28;20739;-69
2022/03/26 01:54:38;;;;;;;19.40;9.00;;;10.80;59.70;;;;;;5032795;28;20225;-67
2022/03/26 01:57:04;;;;;;;16.00;8.80;;;10.80;59.70;;;;;;5010558;28;20518;-69
2022/03/26 01:59:31;;;;;;;20.40;9.23;;;10.80;59.70;;;;;;5030048;28;20478;-69
2022/03/26 02:01:56;;;;;;;19.13;8.80;;;10.80;60.00;;;;;;5023952;28;20460;-69
2022/03/26 02:04:26;;;;;;;19.73;10.27;;;10.80;59.90;;;;;;5042753;28;20463;-71
2022/03/26 02:06:52;;;;;;;19.97;9.10;;;10.80;59.90;;;;;;5029341;28;20489;-69
2022/03/26 02:09:18;;;;;;;16.23;9.17;;;10.80;59.80;;;;;;5042955;28;20462;-68
2022/03/26 02:11:45;;;;;;;18.00;9.30;;;10.80;59.90;;;;;;5016622;28;20221;-68
2022/03/26 02:14:12;;;;;;;17.90;9.77;;;10.70;59.80;;;;;;5012547;28;20230;-70
2022/03/26 02:16:40;;;;;;;14.83;7.93;;;10.80;59.80;;;;;;5030682;28;20838;-70
2022/03/26 02:19:08;;;;;;;15.60;8.77;;;10.70;59.80;;;;;;5040323;28;20463;-68
2022/03/26 02:21:38;;;;;;;18.53;8.60;;;10.70;59.70;;;;;;5030234;28;20471;-68
2022/03/26 02:24:06;;;;;;;17.50;8.87;;;10.70;59.90;;;;;;5021128;28;20491;-69
2022/03/26 02:26:32;;;;;;;17.33;9.83;;;10.70;59.90;;;;;;5035004;28;20510;-70
2022/03/26 02:29:05;;;;;;;18.13;8.97;;;10.70;59.90;;;;;;5034463;28;20459;-72
2022/03/26 02:31:31;;;;;;;18.70;9.63;;;10.60;59.90;;;;;;5011141;28;20456;-69
2022/03/26 02:33:56;;;;;;;15.00;8.63;;;10.60;60.10;;;;;;5009428;28;20798;-69
2022/03/26 02:36:22;;;;;;;16.60;8.67;;;10.60;60.30;;;;;;5025365;28;20965;-70
2022/03/26 02:38:47;;;;;;;16.80;8.30;;;10.60;60.10;;;;;;5036123;28;20794;-70
2022/03/26 02:41:13;;;;;;;16.03;8.43;;;10.60;60.10;;;;;;5028463;28;20607;-70
2022/03/26 02:43:39;;;;;;;11.03;7.60;;;10.60;60.00;;;;;;5031235;28;20220;-68
2022/03/26 02:46:05;;;;;;;18.87;9.60;;;10.60;60.10;;;;;;5041615;28;20219;-67
2022/03/26 02:48:31;;;;;;;17.27;9.87;;;10.50;59.90;;;;;;5036861;28;21017;-69
2022/03/26 02:50:57;;;;;;;17.93;9.30;;;10.50;59.70;;;;;;5034780;28;20303;-67
2022/03/26 02:53:22;;;;;;;18.20;9.50;;;10.50;59.60;;;;;;5054439;28;21102;-69
2022/03/26 02:55:48;;;;;;;19.50;9.00;;;10.40;59.90;;;;;;5029124;28;20217;-68
2022/03/26 02:58:14;;;;;;;15.10;7.80;;;10.40;59.60;;;;;;5030473;28;20714;-70
2022/03/26 03:00:40;;;;;;;14.37;8.60;;;10.30;60.00;;;;;;5011548;28;20228;-69
2022/03/26 03:03:08;;;;;;;21.07;10.90;;;10.30;60.10;;;;;;5030891;28;20235;-69
2022/03/26 03:05:34;;;;;;;26.10;9.53;;;10.30;60.20;;;;;;5025737;28;21049;-69
2022/03/26 03:08:01;;;;;;;14.47;8.50;;;10.30;59.90;;;;;;5036363;28;20452;-69
2022/03/26 03:10:27;;;;;;;22.10;11.60;;;10.30;60.00;;;;;;5028467;28;20463;-69
2022/03/26 03:12:53;;;;;;;14.00;8.23;;;10.30;60.00;;;;;;5028704;28;20454;-70
2022/03/26 03:15:19;;;;;;;15.83;9.03;;;10.30;60.20;;;;;;5025866;28;20456;-68
2022/03/26 03:17:47;;;;;;;15.70;9.47;;;10.30;60.30;;;;;;5028126;28;20217;-69
2022/03/26 03:20:14;;;;;;;21.93;9.00;;;10.20;60.00;;;;;;5024925;28;20447;-70
2022/03/26 03:22:41;;;;;;;13.43;9.07;;;10.20;59.90;;;;;;5027517;28;20483;-71
2022/03/26 03:25:07;;;;;;;15.07;8.70;;;10.20;60.20;;;;;;5024955;28;20463;-70
2022/03/26 03:27:34;;;;;;;12.73;8.83;;;10.20;60.30;;;;;;5028692;28;20586;-70
2022/03/26 03:29:59;;;;;;;15.43;8.60;;;10.20;60.10;;;;;;5027815;28;20515;-68
2022/03/26 03:32:26;;;;;;;13.93;8.17;;;10.20;60.30;;;;;;5027030;28;20554;-70
2022/03/26 03:34:52;;;;;;;20.00;9.60;;;10.20;60.20;;;;;;5030979;28;20307;-69
2022/03/26 03:37:18;;;;;;;20.30;9.40;;;10.20;60.10;;;;;;5027821;28;20512;-69
2022/03/26 03:39:44;;;;;;;22.97;8.87;;;10.10;59.90;;;;;;5049434;28;21065;-70
2022/03/26 03:42:09;;;;;;;18.57;8.97;;;10.10;60.20;;;;;;5031942;28;20474;-69
2022/03/26 03:44:36;;;;;;;16.67;9.20;;;10.10;60.00;;;;;;5031017;28;20227;-69
2022/03/26 03:47:02;;;;;;;19.27;8.10;;;10.00;59.80;;;;;;5030934;28;20303;-70
2022/03/26 03:49:31;;;;;;;17.13;8.40;;;10.00;60.00;;;;;;5027381;28;20467;-70
2022/03/26 03:51:58;;;;;;;20.93;8.17;;;10.00;59.90;;;;;;5030225;28;20458;-69
2022/03/26 03:54:24;;;;;;;16.00;7.50;;;10.00;59.90;;;;;;5025604;28;20456;-69
2022/03/26 03:56:50;;;;;;;16.40;8.10;;;9.90;61.10;;;;;;5043503;28;20455;-69
2022/03/26 03:59:16;;;;;;;15.00;8.53;;;9.90;61.30;;;;;;5032589;28;21041;-69
2022/03/26 04:01:41;;;;;;;17.17;8.60;;;9.90;61.50;;;;;;5032724;28;20474;-69
2022/03/26 04:04:07;;;;;;;15.27;8.70;;;9.90;61.70;;;;;;5027177;28;20271;-71
2022/03/26 04:06:33;;;;;;;18.97;9.20;;;9.90;62.40;;;;;;5029805;28;20219;-68
2022/03/26 04:08:59;;;;;;;14.27;8.70;;;9.80;62.20;;;;;;5024757;28;20221;-70
2022/03/26 04:11:24;;;;;;;16.03;8.57;;;9.80;62.20;;;;;;5029425;28;20244;-68
2022/03/26 04:13:53;;;;;;;18.27;8.17;;;9.80;62.60;;;;;;5031761;28;20270;-67
2022/03/26 04:16:20;;;;;;;18.67;9.03;;;9.80;62.70;;;;;;5037959;28;20228;-67
2022/03/26 04:18:45;;;;;;;20.17;8.93;;;9.80;62.30;;;;;;5023992;28;20460;-70
2022/03/26 04:21:11;;;;;;;16.70;9.00;;;9.80;62.20;;;;;;5026046;28;20467;-69
2022/03/26 04:23:37;;;;;;;14.60;7.60;;;9.80;62.60;;;;;;5027592;28;20224;-68
2022/03/26 04:26:03;;;;;;;17.00;8.67;;;9.80;62.60;;;;;;5018293;28;20471;-70
2022/03/26 04:28:30;;;;;;;14.70;8.80;;;9.80;63.00;;;;;;5025782;28;20680;-70
2022/03/26 04:30:56;;;;;;;15.53;9.30;;;9.80;63.10;;;;;;5030903;28;20511;-70
2022/03/26 04:33:22;;;;;;;14.23;8.37;;;9.80;63.10;;;;;;5026330;28;20486;-69
2022/03/26 04:35:48;;;;;;;14.33;7.53;;;9.70;62.90;;;;;;5023263;28;20558;-69
2022/03/26 04:38:13;;;;;;;17.40;8.97;;;9.70;62.90;;;;;;5021371;28;20220;-70
2022/03/26 04:40:39;;;;;;;16.37;8.63;;;9.70;62.70;;;;;;5041135;28;20215;-69
2022/03/26 04:43:05;;;;;;;18.90;9.57;;;9.70;62.80;;;;;;5011176;28;20781;-69
2022/03/26 04:45:32;;;;;;;17.67;9.00;;;9.60;62.70;;;;;;5025158;28;20278;-71
2022/03/26 04:47:58;;;;;;;13.53;8.87;;;9.60;62.70;;;;;;5023958;28;20498;-71
2022/03/26 04:50:24;;;;;;;18.93;9.87;;;9.60;62.90;;;;;;5026848;28;20856;-70
2022/03/26 04:52:50;;;;;;;27.23;10.00;;;9.60;62.90;;;;;;5024439;28;21347;-68
2022/03/26 04:55:18;;;;;;;18.33;9.37;;;9.60;63.00;;;;;;5028581;28;20539;-70
2022/03/26 04:57:47;;;;;;;24.70;10.20;;;9.60;63.20;;;;;;5028360;28;20735;-70
2022/03/26 05:00:15;;;;;;;16.33;8.87;;;9.50;63.10;;;;;;5028125;28;20459;-68
2022/03/26 05:02:42;;;;;;;19.73;9.67;;;9.50;62.80;;;;;;5020638;28;20490;-68
2022/03/26 05:05:09;;;;;;;18.57;9.43;;;9.50;63.10;;;;;;5028938;28;20996;-69
2022/03/26 05:07:48;;;;;;;13.70;8.27;;;9.50;63.30;;;;;;5008174;28;20537;-69
2022/03/26 05:10:23;;;;;;;16.07;8.83;;;9.50;63.40;;;;;;5029630;28;20893;-70
2022/03/26 05:12:50;;;;;;;16.17;9.57;;;9.50;63.20;;;;;;5026187;28;21011;-70
2022/03/26 05:15:17;;;;;;;16.83;9.50;;;9.50;63.30;;;;;;5041127;28;20465;-69
2022/03/26 05:17:43;;;;;;;19.13;8.60;;;9.40;63.20;;;;;;5041579;28;20463;-71
2022/03/26 05:20:12;;;;;;;17.80;9.47;;;9.40;63.40;;;;;;5024970;28;20490;-69
2022/03/26 05:22:41;;;;;;;13.70;7.97;;;9.40;63.50;;;;;;5023032;28;20459;-69
2022/03/26 05:25:08;;;;;;;18.63;9.10;;;9.40;63.50;;;;;;5024265;28;20542;-69
2022/03/26 05:27:34;;;;;;;22.40;9.40;;;9.40;63.50;;;;;;5043261;28;21078;-70
2022/03/26 05:30:00;;;;;;;24.40;9.80;;;9.40;63.70;;;;;;5021991;28;20463;-69
2022/03/26 05:32:26;;;;;;;13.50;8.40;;;9.30;63.70;;;;;;5023338;28;20539;-68
2022/03/26 05:34:51;;;;;;;18.63;8.27;;;9.30;63.60;;;;;;5025906;28;20242;-69
2022/03/26 05:37:18;;;;;;;15.67;8.50;;;9.30;63.70;;;;;;5023598;28;20208;-70
2022/03/26 05:39:45;;;;;;;18.47;8.10;;;9.20;63.70;;;;;;5024099;28;20220;-70
2022/03/26 05:42:10;;;;;;;16.10;8.50;;;9.20;63.80;;;;;;5023525;28;21001;-69
2022/03/26 05:44:36;;;;;;;21.53;9.97;;;9.20;63.90;;;;;;5023203;28;20467;-70
2022/03/26 05:47:02;;;;;;;18.33;8.17;;;9.20;64.00;;;;;;5027632;28;20228;-70
2022/03/26 05:49:27;;;;;;;17.40;9.30;;;9.20;64.50;;;;;;5030614;28;20215;-69
2022/03/26 05:51:53;;;;;;;18.80;9.37;;;9.20;64.30;;;;;;5026587;28;20216;-68
2022/03/26 05:54:19;;;;;;;19.60;9.37;;;9.20;64.30;;;;;;5031856;28;20224;-71
2022/03/26 05:56:53;;;;;;;15.67;7.83;;;9.20;64.40;;;;;;5033963;28;20216;-70
2022/03/26 05:59:21;;;;;;;23.20;9.13;;;9.10;64.40;;;;;;5028883;28;20207;-70
2022/03/26 06:01:48;;;;;;;20.47;9.40;;;9.10;64.40;;;;;;5029978;28;20466;-70
2022/03/26 06:04:14;;;;;;;15.53;8.60;;;9.10;64.30;;;;;;5026410;28;20455;-70
2022/03/26 06:06:41;;;;;;;15.43;8.03;;;9.10;64.60;;;;;;5027729;28;20493;-70
2022/03/26 06:09:07;;;;;;;18.50;8.10;;;9.10;64.60;;;;;;5026271;28;20461;-70
2022/03/26 06:11:33;;;;;;;16.47;9.43;;;9.10;64.60;;;;;;5027766;28;21033;-68
2022/03/26 06:14:00;;;;;;;15.97;8.93;;;9.10;64.90;;;;;;5026998;28;20504;-71
2022/03/26 06:16:26;;;;;;;16.83;8.93;;;9.00;64.60;;;;;;5030874;28;20235;-69
2022/03/26 06:18:52;;;;;;;19.60;8.70;;;9.00;64.60;;;;;;5026390;28;20542;-70
2022/03/26 06:21:18;;;;;;;18.93;9.40;;;9.00;64.90;;;;;;5029873;28;20570;-68
2022/03/26 06:23:44;;;;;;;18.90;9.17;;;9.00;64.90;;;;;;5030037;28;20208;-70
2022/03/26 06:26:10;;;;;;;16.30;8.63;;;9.00;65.00;;;;;;5029716;28;20641;-70
2022/03/26 06:28:36;;;;;;;13.73;8.23;;;9.00;65.30;;;;;;5026314;28;20232;-69
2022/03/26 06:31:03;;;;;;;17.77;8.27;;;9.00;65.90;;;;;;5026222;28;20468;-69
2022/03/26 06:33:29;;;;;;;15.83;8.20;;;9.00;65.70;;;;;;5031918;28;20455;-69
2022/03/26 06:35:54;;;;;;;17.20;9.50;;;9.00;65.90;;;;;;5027317;28;20485;-69
2022/03/26 06:38:20;;;;;;;15.03;9.03;;;9.00;66.10;;;;;;5027026;28;20277;-70
2022/03/26 06:40:46;;;;;;;19.83;9.73;;;9.00;66.10;;;;;;5031328;28;20236;-69
2022/03/26 06:43:12;;;;;;;17.33;9.47;;;9.00;66.00;;;;;;5029752;28;20227;-71
2022/03/26 06:45:38;;;;;;;20.80;11.13;;;9.00;66.00;;;;;;5020095;28;20217;-69
2022/03/26 06:48:04;;;;;;;19.30;10.63;;;9.10;67.00;;;;;;5029506;28;20483;-70
2022/03/26 06:50:29;;;;;;;18.07;9.17;;;9.00;66.20;;;;;;5030923;28;20216;-70
2022/03/26 06:52:55;;;;;;;17.73;9.77;;;9.10;66.50;;;;;;5027159;28;20467;-70
2022/03/26 06:55:22;;;;;;;18.97;10.30;;;9.10;66.50;;;;;;5027454;28;20208;-71
2022/03/26 06:57:51;;;;;;;24.37;9.57;;;9.10;66.90;;;;;;5026819;28;20523;-70
2022/03/26 07:00:17;;;;;;;21.73;11.50;;;9.10;67.20;;;;;;5026732;28;20454;-69
2022/03/26 07:02:44;;;;;;;25.63;9.30;;;9.10;67.60;;;;;;5036145;28;20456;-71
2022/03/26 07:05:10;;;;;;;14.00;9.83;;;9.10;68.20;;;;;;5029521;28;20464;-70
2022/03/26 07:07:36;;;;;;;16.10;9.70;;;9.10;67.90;;;;;;5043184;28;20474;-69
2022/03/26 07:10:03;;;;;;;22.10;9.70;;;9.20;68.20;;;;;;5032745;28;20467;-69
2022/03/26 07:12:29;;;;;;;18.00;9.83;;;9.20;68.80;;;;;;5046346;28;20231;-70
2022/03/26 07:14:55;;;;;;;18.57;10.33;;;9.30;68.80;;;;;;5029494;28;20466;-70
2022/03/26 07:17:21;;;;;;;22.50;10.30;;;9.30;69.30;;;;;;5022781;28;20212;-70
2022/03/26 07:19:47;;;;;;;17.70;9.17;;;9.40;69.80;;;;;;5029676;28;20465;-69
2022/03/26 07:22:13;;;;;;;24.93;11.27;;;9.40;69.40;;;;;;5034663;28;20243;-69
2022/03/26 07:24:39;;;;;;;26.17;10.83;;;9.50;70.20;;;;;;5030675;28;20478;-70
2022/03/26 07:27:05;;;;;;;16.40;8.97;;;9.60;70.80;;;;;;5027508;28;20263;-70
2022/03/26 07:29:32;;;;;;;16.73;9.37;;;9.60;71.80;;;;;;5029832;28;20503;-71
2022/03/26 07:31:58;;;;;;;25.63;10.67;;;9.70;71.50;;;;;;5036249;28;20450;-71
2022/03/26 07:34:26;;;;;;;18.10;9.53;;;9.80;72.30;;;;;;5025115;28;20478;-70
2022/03/26 07:36:52;;;;;;;18.20;9.40;;;9.80;72.10;;;;;;5022042;28;20220;-70
2022/03/26 07:39:18;;;;;;;19.90;10.53;;;9.90;72.90;;;;;;5031529;28;20501;-68
2022/03/26 07:41:44;;;;;;;17.50;9.43;;;10.00;71.50;;;;;;5030491;28;20549;-71
2022/03/26 07:44:11;;;;;;;28.20;11.13;;;10.00;72.40;;;;;;5028279;28;20227;-71
2022/03/26 07:46:37;;;;;;;28.77;12.00;;;10.10;72.00;;;;;;5045138;28;20971;-71
2022/03/26 07:49:03;;;;;;;21.00;10.17;;;10.10;72.20;;;;;;5027376;28;20217;-70
2022/03/26 07:51:28;;;;;;;20.73;10.43;;;10.20;72.20;;;;;;5028499;28;20740;-70
2022/03/26 07:53:54;;;;;;;18.40;9.47;;;10.40;73.90;;;;;;5032350;28;20473;-70
2022/03/26 07:56:20;;;;;;;20.33;10.53;;;10.40;73.40;;;;;;5033864;28;20354;-70
2022/03/26 07:58:47;;;;;;;25.53;11.00;;;10.50;74.00;;;;;;5032713;28;20235;-69
2022/03/26 08:01:13;;;;;;;22.27;11.47;;;10.60;74.30;;;;;;5032123;28;20220;-68
2022/03/26 08:03:38;;;;;;;22.70;11.37;;;10.80;74.20;;;;;;5027868;28;20459;-70
2022/03/26 08:06:04;;;;;;;23.60;12.57;;;10.90;74.20;;;;;;5048992;28;20212;-70
2022/03/26 08:08:30;;;;;;;22.77;11.83;;;10.90;74.40;;;;;;5029682;28;20235;-69
2022/03/26 08:10:55;;;;;;;18.50;12.20;;;11.00;74.50;;;;;;5026878;28;20212;-69
2022/03/26 08:13:21;;;;;;;27.00;14.33;;;11.10;74.50;;;;;;5030554;28;20221;-69
2022/03/26 08:15:46;;;;;;;22.73;12.27;;;11.10;73.70;;;;;;5029149;28;20212;-70
2022/03/26 08:18:12;;;;;;;23.70;12.60;;;11.10;74.40;;;;;;5028425;28;20274;-71
2022/03/26 08:20:38;;;;;;;24.03;12.70;;;11.20;74.80;;;;;;5048627;28;20221;-70
2022/03/26 08:23:04;;;;;;;25.53;13.07;;;11.30;74.30;;;;;;5010918;28;20311;-70
2022/03/26 08:28:14;;;;;;;29.03;13.43;;;11.50;73.80;;;;;;5026334;28;20282;-70
2022/03/26 08:30:41;;;;;;;23.93;12.80;;;11.60;73.60;;;;;;5042502;28;20458;-68
2022/03/26 08:33:07;;;;;;;23.57;12.13;;;11.70;73.80;;;;;;5047611;28;20246;-71
2022/03/26 08:35:33;;;;;;;20.00;11.87;;;11.90;73.80;;;;;;5028831;28;20463;-70
2022/03/26 08:37:59;;;;;;;24.43;13.00;;;11.90;73.30;;;;;;5046525;28;20680;-70
2022/03/26 08:40:25;;;;;;;28.90;12.70;;;11.90;73.30;;;;;;5029974;28;20473;-69
2022/03/26 08:42:51;;;;;;;28.10;12.33;;;11.90;73.10;;;;;;5030095;28;20875;-70
2022/03/26 08:45:16;;;;;;;21.43;11.80;;;12.00;74.10;;;;;;5031964;28;20208;-69
2022/03/26 08:47:42;;;;;;;24.63;13.27;;;12.20;74.20;;;;;;5034163;28;20700;-70
2022/03/26 08:50:08;;;;;;;27.67;14.17;;;12.30;74.20;;;;;;5030026;28;20278;-70
2022/03/26 08:52:34;;;;;;;22.03;12.07;;;12.40;74.00;;;;;;5038326;28;20224;-69
2022/03/26 08:55:00;;;;;;;25.40;13.83;;;12.50;74.40;;;;;;5031864;28;20521;-70
2022/03/26 08:57:26;;;;;;;25.40;14.27;;;12.70;74.20;;;;;;5037845;28;20215;-69
2022/03/26 08:59:52;;;;;;;24.37;14.03;;;12.80;73.80;;;;;;5018938;28;20497;-69
2022/03/26 09:02:18;;;;;;;24.43;13.63;;;12.90;73.80;;;;;;5025780;28;20266;-72
2022/03/26 09:04:45;;;;;;;32.47;15.63;;;13.00;73.20;;;;;;5028327;28;20251;-69
2022/03/26 09:07:11;;;;;;;28.67;13.80;;;13.00;72.20;;;;;;5039022;28;20477;-68
2022/03/26 09:09:37;;;;;;;28.30;15.97;;;13.10;72.80;;;;;;5031408;28;20975;-70
2022/03/26 09:12:03;;;;;;;24.90;12.73;;;13.30;72.60;;;;;;5032820;28;20463;-70
2022/03/26 09:14:29;;;;;;;29.60;13.60;;;13.40;72.70;;;;;;5032241;28;20588;-68
2022/03/26 09:16:54;;;;;;;22.00;13.10;;;13.60;72.50;;;;;;5029980;28;20454;-70
2022/03/26 09:19:20;;;;;;;21.87;12.70;;;13.60;72.70;;;;;;5029643;28;20221;-68
2022/03/26 09:21:46;;;;;;;24.60;12.77;;;13.70;72.90;;;;;;5032491;28;20228;-68
2022/03/26 09:24:15;;;;;;;25.13;12.90;;;13.70;72.60;;;;;;5028475;28;20223;-67
2022/03/26 09:26:41;;;;;;;28.93;13.53;;;13.80;72.10;;;;;;5049251;28;20448;-68
2022/03/26 09:29:07;;;;;;;23.77;13.00;;;13.90;72.20;;;;;;5035693;28;20446;-68
2022/03/26 09:31:33;;;;;;;32.23;12.60;;;13.90;71.40;;;;;;5037746;28;20457;-68
2022/03/26 09:33:58;;;;;;;30.63;13.77;;;14.00;72.00;;;;;;5031239;28;20583;-67
2022/03/26 09:36:24;;;;;;;28.50;14.33;;;14.10;72.10;;;;;;5029936;28;20213;-68
2022/03/26 09:38:50;;;;;;;31.77;15.70;;;14.20;71.90;;;;;;5023336;28;20223;-68
2022/03/26 09:41:16;;;;;;;24.83;15.00;;;14.20;71.70;;;;;;5010301;28;20689;-68
2022/03/26 09:43:43;;;;;;;32.23;16.17;;;14.30;71.80;;;;;;5049824;28;20233;-67
2022/03/26 09:46:10;;;;;;;27.83;15.63;;;14.40;71.70;;;;;;5034627;28;20470;-68
2022/03/26 09:48:39;;;;;;;27.13;15.00;;;14.40;70.60;;;;;;5030919;28;20447;-69
2022/03/26 09:51:05;;;;;;;23.93;14.27;;;14.50;70.80;;;;;;5027131;28;20863;-68
2022/03/26 09:53:31;;;;;;;28.03;14.23;;;14.50;71.30;;;;;;5026021;28;20478;-66
2022/03/26 09:55:57;;;;;;;20.60;12.17;;;14.60;71.30;;;;;;5027246;28;20455;-68
2022/03/26 09:58:23;;;;;;;25.20;15.60;;;14.70;71.70;;;;;;5026655;28;20295;-68
2022/03/26 10:00:49;;;;;;;23.27;13.63;;;14.80;71.00;;;;;;5028535;28;20448;-67
2022/03/26 10:03:16;;;;;;;26.00;15.07;;;14.90;70.80;;;;;;5027359;28;20220;-68
2022/03/26 10:05:42;;;;;;;28.17;14.20;;;15.00;70.50;;;;;;5022907;28;20224;-68
2022/03/26 10:08:22;;;;;;;24.10;13.80;;;15.00;70.50;;;;;;5029274;28;20447;-68
2022/03/26 10:10:50;;;;;;;29.57;14.50;;;15.20;69.80;;;;;;5014250;28;20223;-67
2022/03/26 10:13:36;;;;;;;24.90;13.87;;;15.20;69.70;;;;;;5025316;28;20493;-69
2022/03/26 10:16:07;;;;;;;25.47;13.80;;;15.40;69.10;;;;;;5022049;28;20520;-67
2022/03/26 10:18:41;;;;;;;27.63;14.03;;;15.40;68.60;;;;;;5020071;28;20459;-68
2022/03/26 10:21:12;;;;;;;26.33;14.70;;;15.40;68.80;;;;;;5027556;28;20509;-67
2022/03/26 10:23:43;;;;;;;23.77;13.43;;;15.40;68.30;;;;;;5018045;28;20463;-68
2022/03/26 10:26:11;;;;;;;24.03;13.57;;;15.40;66.50;;;;;;5020678;28;20450;-69
2022/03/26 10:28:40;;;;;;;28.80;14.10;;;15.40;66.60;;;;;;5033293;28;20480;-68
2022/03/26 10:34:20;;;;;;;21.43;12.40;;;15.40;65.40;;;;;;5018041;28;20531;-68
2022/03/26 10:36:57;;;;;;;23.23;13.37;;;15.30;65.30;;;;;;5029604;28;20486;-68
2022/03/26 10:39:25;;;;;;;23.80;12.30;;;15.30;63.40;;;;;;5015107;28;21030;-66
2022/03/26 10:41:55;;;;;;;21.40;12.20;;;15.30;63.30;;;;;;5050058;28;20891;-67
2022/03/26 10:44:29;;;;;;;19.50;12.03;;;15.20;63.00;;;;;;5046306;28;20491;-68
2022/03/26 10:47:04;;;;;;;26.43;12.63;;;15.20;63.70;;;;;;5035119;28;20455;-67
2022/03/26 10:49:29;;;;;;;19.40;12.43;;;15.10;63.90;;;;;;5029195;28;20522;-68
2022/03/26 10:51:57;;;;;;;25.57;12.33;;;15.10;63.20;;;;;;5036214;28;21003;-68
2022/03/26 10:54:29;;;;;;;21.57;11.83;;;15.20;63.00;;;;;;5034957;28;20243;-67
2022/03/26 10:57:00;;;;;;;22.23;13.10;;;15.10;63.00;;;;;;5015897;28;20471;-66
2022/03/26 10:59:27;;;;;;;20.30;11.80;;;15.10;63.40;;;;;;5028372;28;20458;-68
2022/03/26 11:01:52;;;;;;;21.13;12.63;;;15.20;62.70;;;;;;5042726;28;20485;-68
2022/03/26 11:04:19;;;;;;;22.30;11.63;;;15.30;62.90;;;;;;5034583;28;20470;-67
2022/03/26 11:06:47;;;;;;;22.93;11.23;;;15.40;62.50;;;;;;5027530;28;20609;-67
2022/03/26 11:09:15;;;;;;;21.27;12.77;;;15.50;61.90;;;;;;5050383;28;20489;-69
2022/03/26 11:11:42;;;;;;;21.60;12.50;;;15.50;61.20;;;;;;5045314;28;20455;-66
2022/03/26 11:14:15;;;;;;;25.43;12.10;;;15.50;61.40;;;;;;5031663;28;20459;-70
2022/03/26 11:16:40;;;;;;;16.63;10.93;;;15.60;61.30;;;;;;5030929;28;20458;-66
2022/03/26 11:19:15;;;;;;;22.93;12.00;;;15.60;59.90;;;;;;5029988;28;20443;-68
2022/03/26 11:21:55;;;;;;;24.50;12.47;;;15.60;60.00;;;;;;5029473;28;20227;-68
2022/03/26 11:24:43;;;;;;;23.00;11.43;;;15.60;59.70;;;;;;5029246;28;21091;-66
2022/03/26 11:27:39;;;;;;;18.53;11.43;;;15.70;59.60;;;;;;5028269;28;20867;-67
2022/03/26 11:30:36;;;;;;;21.40;12.30;;;16.00;59.60;;;;;;5030343;28;20534;-67
2022/03/26 11:33:09;;;;;;;20.47;12.57;;;16.20;60.40;;;;;;5031015;28;20447;-67
2022/03/26 11:35:35;;;;;;;19.70;11.60;;;16.40;59.50;;;;;;5012282;28;20565;-67
2022/03/26 11:38:02;;;;;;;18.23;12.60;;;16.50;59.40;;;;;;5022421;28;20539;-66
2022/03/26 11:40:51;;;;;;;20.57;12.47;;;16.40;59.20;;;;;;5027239;28;20227;-67
2022/03/26 11:43:21;;;;;;;22.57;10.70;;;16.30;59.50;;;;;;5044678;28;20462;-68
2022/03/26 11:51:24;;;;;;;21.17;10.73;;;16.40;58.60;;;;;;5028140;28;20457;-66
2022/03/26 11:54:06;;;;;;;22.53;12.27;;;16.40;58.50;;;;;;5028202;28;20466;-66
2022/03/26 11:56:33;;;;;;;19.60;11.03;;;16.50;58.60;;;;;;5029420;28;20471;-67
2022/03/26 11:59:23;;;;;;;18.03;11.00;;;16.50;58.50;;;;;;5029305;28;20459;-68
2022/03/26 12:01:50;;;;;;;20.40;11.00;;;16.50;58.40;;;;;;5020733;28;20547;-66
2022/03/26 12:04:24;;;;;;;25.93;12.43;;;16.50;58.30;;;;;;5020568;28;20460;-66
2022/03/26 12:06:51;;;;;;;23.63;10.90;;;16.50;58.20;;;;;;5026653;28;20452;-68
2022/03/26 12:09:35;;;;;;;22.33;11.93;;;16.40;58.30;;;;;;5022750;28;20488;-68
2022/03/26 12:12:13;;;;;;;19.97;11.20;;;16.50;58.60;;;;;;5025762;28;20449;-67
2022/03/26 12:15:08;;;;;;;18.40;10.57;;;16.50;58.90;;;;;;5007352;28;20491;-68
2022/03/26 12:17:53;;;;;;;18.63;10.73;;;16.50;58.60;;;;;;5033063;28;20444;-67
2022/03/26 12:20:19;;;;;;;22.10;10.33;;;16.50;58.40;;;;;;5028206;28;20493;-68
2022/03/26 12:22:47;;;;;;;23.90;10.60;;;16.60;58.40;;;;;;5009105;28;20476;-65
2022/03/26 12:25:16;;;;;;;19.63;10.83;;;16.60;58.20;;;;;;5046251;28;20253;-67
2022/03/26 12:27:44;;;;;;;20.73;11.40;;;16.70;58.30;;;;;;5030297;28;21035;-67
2022/03/26 12:30:10;;;;;;;18.30;10.57;;;16.60;58.90;;;;;;5026718;28;20483;-67
2022/03/26 12:32:36;;;;;;;20.63;11.30;;;16.60;59.10;;;;;;5027910;28;20543;-67
2022/03/26 12:35:09;;;;;;;17.90;10.20;;;16.80;59.20;;;;;;5018626;28;20554;-69
2022/03/26 12:37:35;;;;;;;17.10;9.50;;;16.90;59.00;;;;;;5044106;28;20455;-69
2022/03/26 12:40:04;;;;;;;18.47;9.90;;;16.90;58.50;;;;;;5045144;28;20527;-66
2022/03/26 12:42:30;;;;;;;15.53;9.90;;;17.10;58.70;;;;;;5034300;28;20850;-67
2022/03/26 12:44:55;;;;;;;25.20;11.63;;;17.00;58.80;;;;;;5020660;28;20464;-68
2022/03/26 12:47:26;;;;;;;21.07;10.30;;;17.00;58.70;;;;;;5022501;28;20715;-67